Terminal Aerodrome Forecast
Issued by NWS

Current Version | Previous Version | Text Only | Print | Product List | Glossary Off
Versions: 1 2 3 4 5 6 7 8 9 10 11 12 13 14 15 16 17 18 19 20 21 22 23 24 25 26 27 28

000
FTUS41 KILN 222300
TAFLUK
TAF
KLUK 222336Z 2300/2324 VRB03KT P6SM SCT250
      TEMPO 2307/2311 4SM BR
     FM231100 VRB03KT P6SM SCT080 BKN200
     FM231400 26007KT P6SM VCTS BKN050CB
     FM231700 29009KT P6SM -SHRA VCTS OVC050CB
     FM232100 32010KT P6SM BKN060=

USA.gov is the U.S. government's official web portal to all federal, state and local government web resources and services.